CDT,Max TemperatureF,Mean TemperatureF,Min TemperatureF,Max Dew PointF,MeanDew PointF,Min DewpointF,Max Humidity, Mean Humidity, Min Humidity, Max Sea Level PressureIn, Mean Sea Level PressureIn, Min Sea Level PressureIn, Max VisibilityMiles, Mean VisibilityMiles, Min VisibilityMiles, Max Wind SpeedMPH, Mean Wind SpeedMPH, Max Gust SpeedMPH,PrecipitationIn, CloudCover, Events, WindDirDegrees
2013-8-1,93,83,73,77,74,72,100,76,52,30.01,29.97,29.92,10,5,0,10,4,15,0.00,0,Fog,97
2013-8-2,94,84,73,79,75,71,93,77,60,29.97,29.93,29.87,8,6,1,10,5,14,0.00,0,,106
2013-8-3,92,83,73,77,75,72,100,80,59,30.03,29.97,29.90,10,5,0,13,3,16,0.00,0,Fog,87
2013-8-4,95,86,76,77,75,72,94,72,49,30.08,30.01,29.95,10,9,5,9,4,14,0.00,0,,93
2013-8-5,96,86,75,76,74,72,94,70,46,29.98,29.92,29.83,10,8,3,12,5,15,0.00,0,,140
2013-8-6,96,84,72,76,73,71,100,74,48,29.91,29.86,29.80,10,8,2,10,4,13,0.00,0,,139
2013-8-7,96,84,72,77,74,71,100,76,51,29.91,29.84,29.78,10,8,2,12,4,15,0.00,0,,125
2013-8-8,95,85,74,75,73,66,94,73,52,29.90,29.84,29.78,10,7,5,13,4,19,0.00,1,,98
2013-8-9,94,84,74,77,72,66,94,73,52,29.95,29.91,29.87,10,8,6,9,4,12,0.00,0,,96
2013-8-10,96,85,73,76,73,70,100,72,43,30.02,29.97,29.91,10,6,2,12,2,15,0.00,1,Thunderstorm,148
2013-8-11,94,84,73,79,74,69,100,78,56,30.07,30.02,29.96,10,8,4,15,2,23,0.00,1,,150
2013-8-12,94,83,72,76,73,70,100,78,56,30.03,29.99,29.90,10,6,1,24,4,35,0.25,2,Rain-Thunderstorm,170
2013-8-13,87,79,71,76,72,70,100,80,59,30.05,29.97,29.91,10,10,7,10,2,13,T,3,,71
2013-8-14,85,75,65,72,67,63,100,76,51,30.05,30.00,29.95,10,10,7,15,6,20,0.00,3,,76
2013-8-15,85,72,59,64,60,57,97,69,40,30.09,30.03,29.96,10,10,8,10,4,14,0.00,0,,88
2013-8-16,79,69,59,62,60,58,97,76,54,30.08,30.03,30.00,10,9,5,12,4,16,T,3,Rain,79
2013-8-17,85,71,56,65,59,55,100,72,44,30.09,30.05,29.98,10,4,0,14,3,20,0.00,1,Fog,58
2013-8-18,88,74,60,68,63,61,100,72,43,30.09,30.05,30.00,10,4,0,13,4,19,0.00,0,Fog,92
2013-8-19,90,75,59,68,64,59,100,73,46,30.10,30.05,29.96,10,4,0,8,2,11,0.00,0,Fog,88
2013-8-20,92,77,62,69,64,60,100,69,38,30.06,30.02,29.96,10,5,0,12,3,15,0.00,0,Fog,138
2013-8-21,93,79,65,70,66,62,100,69,38,30.09,30.05,29.99,10,6,1,10,3,13,0.00,1,,225
2013-8-22,97,82,67,74,69,66,100,71,41,30.08,30.02,29.94,10,8,4,10,2,14,0.00,1,,140
2013-8-23,94,82,69,76,71,64,100,73,46,30.03,29.98,29.91,10,7,1,25,2,36,0.12,1,Rain-Thunderstorm,102
2013-8-24,96,83,70,73,71,66,100,69,38,30.08,30.04,29.99,10,6,0,16,5,20,0.00,0,Fog,93
2013-8-25,95,84,73,72,71,67,93,67,41,30.16,30.11,30.06,10,9,6,15,5,22,0.00,0,,93
2013-8-26,94,82,70,73,69,63,100,69,38,30.19,30.13,30.06,10,10,6,12,4,16,0.00,1,,103
2013-8-27,93,79,65,73,68,65,100,71,41,30.13,30.08,29.99,10,6,0,12,2,15,0.00,1,Fog,217
2013-8-28,97,83,68,72,69,65,100,69,38,30.07,30.02,29.96,10,8,2,10,3,14,0.00,1,,181
2013-8-29,99,84,69,74,70,67,97,66,35,30.06,30.00,29.93,10,8,4,9,2,13,0.00,1,,241
2013-8-30,98,84,69,72,69,67,100,69,38,30.02,29.95,29.86,10,6,1,9,3,14,0.00,0,,161
2013-8-31,100,85,70,78,71,66,100,67,33,29.92,29.85,29.79,10,6,0,14,2,21,T,0,Fog-Rain-Thunderstorm,289